Bryant, Arkansas
Current Conditions -  °F | °C
As of 11:53 AM on Monday 22 Dec 2014 (Local Time) from KLIT Reporting Station
Haze Haze  
Wind Chill: 53°   Ceiling: 700
Heat Index: 53°   Visibility: 6mi
Dew Point: 50°   Wind: 8mph
Humidity: 89%   Direction: 170°S
Pressure: 29.65"   Gusts: NA
Location:  34.59°N, 92.49°W
Report Text: KLIT 221753Z 17007KT 6SM BR OVC007 12/10 A2965 RMK AO2 SLP043 60001 T01170100 10117 20094 58027
Loading
Personal Weather Stations






























Interactive Weather Map New forecast layout! Learn more

10-Day Weather Forecast

Advertisements
Track Severe Weather on mobile